Coker Creek, Tennessee
Current Conditions -  °F | °C
As of 3:15 AM on Monday 26 Jan 2015 (Local Time) from KMMI Reporting Station
Overcast Overcast  
Wind Chill: 43°   Ceiling: 2500
Heat Index: 43°   Visibility: 10mi
Dew Point: 39°   Wind: 3mph
Humidity: 87%   Direction: 230°SW
Pressure: 29.72"   Gusts: NA
Location:  35.2658°N, 84.2859°W
Report Text: KMMI 260815Z AUTO 23003KT 10SM OVC025 06/04 A2972 RMK
Loading
Personal Weather Stations






























Interactive Weather Map New forecast layout! Learn more

10-Day Weather Forecast

Advertisements
Track Severe Weather on mobile